sensor_id;sensor_type;location;lat;lon;timestamp;temperature;humidity
11229;DHT22;5671;47.936;8.716;2022-12-18T00:01:25;-7.70;87.00
11229;DHT22;5671;47.936;8.716;2022-12-18T00:03:54;-7.70;87.00
11229;DHT22;5671;47.936;8.716;2022-12-18T00:06:21;-7.70;87.10
11229;DHT22;5671;47.936;8.716;2022-12-18T00:08:48;-7.60;86.90
11229;DHT22;5671;47.936;8.716;2022-12-18T00:11:17;-7.50;87.10
11229;DHT22;5671;47.936;8.716;2022-12-18T00:13:44;-7.60;86.90
11229;DHT22;5671;47.936;8.716;2022-12-18T00:16:14;-7.50;86.60
11229;DHT22;5671;47.936;8.716;2022-12-18T00:18:42;-7.50;86.30
11229;DHT22;5671;47.936;8.716;2022-12-18T00:21:11;-7.50;86.20
11229;DHT22;5671;47.936;8.716;2022-12-18T00:23:39;-7.40;86.00
11229;DHT22;5671;47.936;8.716;2022-12-18T00:26:11;-7.40;86.00
11229;DHT22;5671;47.936;8.716;2022-12-18T00:28:38;-7.70;86.70
11229;DHT22;5671;47.936;8.716;2022-12-18T00:31:07;-7.40;86.40
11229;DHT22;5671;47.936;8.716;2022-12-18T00:33:36;-7.40;86.20
11229;DHT22;5671;47.936;8.716;2022-12-18T00:36:04;-7.40;86.10
11229;DHT22;5671;47.936;8.716;2022-12-18T00:38:32;-7.70;86.70
11229;DHT22;5671;47.936;8.716;2022-12-18T00:40:59;-7.40;86.20
11229;DHT22;5671;47.936;8.716;2022-12-18T00:43:26;-7.40;85.90
11229;DHT22;5671;47.936;8.716;2022-12-18T00:45:52;-7.30;85.80
11229;DHT22;5671;47.936;8.716;2022-12-18T00:48:19;-7.20;85.40
11229;DHT22;5671;47.936;8.716;2022-12-18T00:50:49;-7.20;85.60
11229;DHT22;5671;47.936;8.716;2022-12-18T00:53:16;-7.30;85.60
11229;DHT22;5671;47.936;8.716;2022-12-18T00:55:43;-7.20;85.50
11229;DHT22;5671;47.936;8.716;2022-12-18T00:58:10;-7.20;85.50
11229;DHT22;5671;47.936;8.716;2022-12-18T01:00:38;-7.20;85.80
11229;DHT22;5671;47.936;8.716;2022-12-18T01:03:05;-7.70;87.10
11229;DHT22;5671;47.936;8.716;2022-12-18T01:05:32;-7.80;87.50
11229;DHT22;5671;47.936;8.716;2022-12-18T01:08:00;-7.60;87.90
11229;DHT22;5671;47.936;8.716;2022-12-18T01:10:27;-7.20;86.40
11229;DHT22;5671;47.936;8.716;2022-12-18T01:12:54;-7.20;86.00
11229;DHT22;5671;47.936;8.716;2022-12-18T01:15:21;-7.10;85.70
11229;DHT22;5671;47.936;8.716;2022-12-18T01:17:48;-7.20;85.50
11229;DHT22;5671;47.936;8.716;2022-12-18T01:20:15;-7.10;85.30
11229;DHT22;5671;47.936;8.716;2022-12-18T01:22:42;-7.20;85.30
11229;DHT22;5671;47.936;8.716;2022-12-18T01:25:10;-7.50;85.90
11229;DHT22;5671;47.936;8.716;2022-12-18T01:27:37;-7.10;85.80
11229;DHT22;5671;47.936;8.716;2022-12-18T01:30:05;-7.10;85.40
11229;DHT22;5671;47.936;8.716;2022-12-18T01:32:32;-7.50;86.20
11229;DHT22;5671;47.936;8.716;2022-12-18T01:34:59;-7.50;87.00
11229;DHT22;5671;47.936;8.716;2022-12-18T01:37:26;-7.20;86.80
11229;DHT22;5671;47.936;8.716;2022-12-18T01:39:52;-7.10;86.00
11229;DHT22;5671;47.936;8.716;2022-12-18T01:42:21;-7.50;86.60
11229;DHT22;5671;47.936;8.716;2022-12-18T01:44:59;-7.40;87.30
11229;DHT22;5671;47.936;8.716;2022-12-18T01:47:30;-7.60;87.50
11229;DHT22;5671;47.936;8.716;2022-12-18T01:50:00;-7.60;87.60
11229;DHT22;5671;47.936;8.716;2022-12-18T01:52:29;-7.60;87.70
11229;DHT22;5671;47.936;8.716;2022-12-18T01:54:57;-7.00;86.30
11229;DHT22;5671;47.936;8.716;2022-12-18T01:57:26;-7.10;86.40
11229;DHT22;5671;47.936;8.716;2022-12-18T01:59:57;-7.50;87.40
11229;DHT22;5671;47.936;8.716;2022-12-18T02:02:26;-7.00;86.20
11229;DHT22;5671;47.936;8.716;2022-12-18T02:04:54;-7.40;86.80
11229;DHT22;5671;47.936;8.716;2022-12-18T02:07:28;-6.90;86.30
11229;DHT22;5671;47.936;8.716;2022-12-18T02:10:02;-7.00;86.20
11229;DHT22;5671;47.936;8.716;2022-12-18T02:12:38;-7.30;86.80
11229;DHT22;5671;47.936;8.716;2022-12-18T02:15:14;-7.50;87.50
11229;DHT22;5671;47.936;8.716;2022-12-18T02:17:45;-7.00;86.20
11229;DHT22;5671;47.936;8.716;2022-12-18T02:20:17;-7.30;86.90
11229;DHT22;5671;47.936;8.716;2022-12-18T02:22:57;-7.40;87.50
11229;DHT22;5671;47.936;8.716;2022-12-18T02:25:38;-6.90;86.60
11229;DHT22;5671;47.936;8.716;2022-12-18T02:28:12;-7.00;87.10
11229;DHT22;5671;47.936;8.716;2022-12-18T02:30:41;-7.40;87.80
11229;DHT22;5671;47.936;8.716;2022-12-18T02:33:11;-7.20;88.00
11229;DHT22;5671;47.936;8.716;2022-12-18T02:35:40;-7.40;88.20
11229;DHT22;5671;47.936;8.716;2022-12-18T02:38:08;-7.40;88.30
11229;DHT22;5671;47.936;8.716;2022-12-18T02:40:36;-6.90;87.00
11229;DHT22;5671;47.936;8.716;2022-12-18T02:43:09;-7.20;87.40
11229;DHT22;5671;47.936;8.716;2022-12-18T02:45:46;-7.30;88.00
11229;DHT22;5671;47.936;8.716;2022-12-18T02:48:13;-7.30;88.20
11229;DHT22;5671;47.936;8.716;2022-12-18T02:50:45;-7.30;88.40
11229;DHT22;5671;47.936;8.716;2022-12-18T02:53:19;-7.30;88.30
11229;DHT22;5671;47.936;8.716;2022-12-18T02:56:00;-7.30;88.50
11229;DHT22;5671;47.936;8.716;2022-12-18T02:58:37;-7.30;88.40
11229;DHT22;5671;47.936;8.716;2022-12-18T03:01:11;-7.30;88.40
11229;DHT22;5671;47.936;8.716;2022-12-18T03:03:43;-7.30;88.50
11229;DHT22;5671;47.936;8.716;2022-12-18T03:06:14;-6.80;87.20
11229;DHT22;5671;47.936;8.716;2022-12-18T03:08:47;-7.10;87.80
11229;DHT22;5671;47.936;8.716;2022-12-18T03:11:15;-7.20;88.40
11229;DHT22;5671;47.936;8.716;2022-12-18T03:14:04;-7.20;88.70
11229;DHT22;5671;47.936;8.716;2022-12-18T03:16:34;-7.20;88.90
11229;DHT22;5671;47.936;8.716;2022-12-18T03:19:06;-7.20;89.20
11229;DHT22;5671;47.936;8.716;2022-12-18T03:21:36;-7.20;89.20
11229;DHT22;5671;47.936;8.716;2022-12-18T03:24:06;-7.20;89.10
11229;DHT22;5671;47.936;8.716;2022-12-18T03:26:34;-7.20;89.20
11229;DHT22;5671;47.936;8.716;2022-12-18T03:29:07;-7.10;89.30
11229;DHT22;5671;47.936;8.716;2022-12-18T03:31:37;-7.10;89.40
11229;DHT22;5671;47.936;8.716;2022-12-18T03:34:11;-7.10;89.30
11229;DHT22;5671;47.936;8.716;2022-12-18T03:36:40;-7.10;89.40
11229;DHT22;5671;47.936;8.716;2022-12-18T03:39:07;-7.00;89.60
11229;DHT22;5671;47.936;8.716;2022-12-18T03:41:41;-7.10;89.50
11229;DHT22;5671;47.936;8.716;2022-12-18T03:44:13;-7.10;89.50
11229;DHT22;5671;47.936;8.716;2022-12-18T03:46:45;-7.10;89.80
11229;DHT22;5671;47.936;8.716;2022-12-18T03:49:20;-7.10;89.90
11229;DHT22;5671;47.936;8.716;2022-12-18T03:51:54;-7.10;89.90
11229;DHT22;5671;47.936;8.716;2022-12-18T03:54:22;-7.10;90.00
11229;DHT22;5671;47.936;8.716;2022-12-18T03:56:57;-6.50;88.60
11229;DHT22;5671;47.936;8.716;2022-12-18T03:59:27;-6.50;88.10
11229;DHT22;5671;47.936;8.716;2022-12-18T04:01:56;-6.40;87.50
11229;DHT22;5671;47.936;8.716;2022-12-18T04:04:24;-6.40;87.40
11229;DHT22;5671;47.936;8.716;2022-12-18T04:06:53;-6.40;87.10
11229;DHT22;5671;47.936;8.716;2022-12-18T04:09:21;-6.40;86.90
11229;DHT22;5671;47.936;8.716;2022-12-18T04:11:48;-6.70;87.50
11229;DHT22;5671;47.936;8.716;2022-12-18T04:14:15;-6.90;88.20
11229;DHT22;5671;47.936;8.716;2022-12-18T04:16:43;-6.50;87.30
11229;DHT22;5671;47.936;8.716;2022-12-18T04:19:10;-6.40;86.90
11229;DHT22;5671;47.936;8.716;2022-12-18T04:21:36;-6.30;86.70
11229;DHT22;5671;47.936;8.716;2022-12-18T04:24:04;-6.40;86.80
11229;DHT22;5671;47.936;8.716;2022-12-18T04:26:30;-6.80;87.40
11229;DHT22;5671;47.936;8.716;2022-12-18T04:28:57;-6.50;86.90
11229;DHT22;5671;47.936;8.716;2022-12-18T04:31:24;-6.70;87.50
11229;DHT22;5671;47.936;8.716;2022-12-18T04:33:52;-6.90;88.00
11229;DHT22;5671;47.936;8.716;2022-12-18T04:36:19;-6.40;87.20
11229;DHT22;5671;47.936;8.716;2022-12-18T04:38:46;-6.80;87.70
11229;DHT22;5671;47.936;8.716;2022-12-18T04:41:13;-6.90;88.40
11229;DHT22;5671;47.936;8.716;2022-12-18T04:43:40;-6.70;88.70
11229;DHT22;5671;47.936;8.716;2022-12-18T04:46:08;-6.90;88.80
11229;DHT22;5671;47.936;8.716;2022-12-18T04:48:35;-6.90;89.10
11229;DHT22;5671;47.936;8.716;2022-12-18T04:51:04;-6.90;89.30
11229;DHT22;5671;47.936;8.716;2022-12-18T04:53:33;-6.90;89.60
11229;DHT22;5671;47.936;8.716;2022-12-18T04:56:05;-6.30;88.50
11229;DHT22;5671;47.936;8.716;2022-12-18T04:58:32;-6.70;89.10
11229;DHT22;5671;47.936;8.716;2022-12-18T05:00:58;-6.80;89.40
11229;DHT22;5671;47.936;8.716;2022-12-18T05:03:25;-6.80;89.40
11229;DHT22;5671;47.936;8.716;2022-12-18T05:05:52;-6.90;89.50
11229;DHT22;5671;47.936;8.716;2022-12-18T05:08:21;-6.20;88.10
11229;DHT22;5671;47.936;8.716;2022-12-18T05:10:47;-6.70;88.70
11229;DHT22;5671;47.936;8.716;2022-12-18T05:13:14;-6.80;89.30
11229;DHT22;5671;47.936;8.716;2022-12-18T05:15:41;-6.30;88.50
11229;DHT22;5671;47.936;8.716;2022-12-18T05:18:08;-6.10;87.90
11229;DHT22;5671;47.936;8.716;2022-12-18T05:20:35;-6.20;87.80
11229;DHT22;5671;47.936;8.716;2022-12-18T05:23:02;-6.50;88.30
11229;DHT22;5671;47.936;8.716;2022-12-18T05:25:30;-6.70;89.10
11229;DHT22;5671;47.936;8.716;2022-12-18T05:27:56;-6.50;89.40
11229;DHT22;5671;47.936;8.716;2022-12-18T05:30:23;-6.30;88.60
11229;DHT22;5671;47.936;8.716;2022-12-18T05:32:50;-6.50;88.90
11229;DHT22;5671;47.936;8.716;2022-12-18T05:35:17;-6.20;88.20
11229;DHT22;5671;47.936;8.716;2022-12-18T05:37:44;-6.50;88.80
11229;DHT22;5671;47.936;8.716;2022-12-18T05:40:12;-6.60;89.40
11229;DHT22;5671;47.936;8.716;2022-12-18T05:42:40;-6.70;89.80
11229;DHT22;5671;47.936;8.716;2022-12-18T05:45:07;-6.60;90.00
11229;DHT22;5671;47.936;8.716;2022-12-18T05:47:34;-6.60;90.00
11229;DHT22;5671;47.936;8.716;2022-12-18T05:50:01;-6.70;90.30
11229;DHT22;5671;47.936;8.716;2022-12-18T05:52:28;-6.60;90.30
11229;DHT22;5671;47.936;8.716;2022-12-18T05:54:54;-6.60;90.30
11229;DHT22;5671;47.936;8.716;2022-12-18T05:57:21;-6.10;89.00
11229;DHT22;5671;47.936;8.716;2022-12-18T05:59:49;-6.00;88.60
11229;DHT22;5671;47.936;8.716;2022-12-18T06:02:16;-6.40;89.20
11229;DHT22;5671;47.936;8.716;2022-12-18T06:04:43;-6.50;89.80
11229;DHT22;5671;47.936;8.716;2022-12-18T06:07:10;-6.60;90.00
11229;DHT22;5671;47.936;8.716;2022-12-18T06:09:36;-6.60;90.20
11229;DHT22;5671;47.936;8.716;2022-12-18T06:12:04;-6.60;90.50
11229;DHT22;5671;47.936;8.716;2022-12-18T06:14:31;-6.60;90.80
11229;DHT22;5671;47.936;8.716;2022-12-18T06:16:59;-6.40;90.90
11229;DHT22;5671;47.936;8.716;2022-12-18T06:19:26;-6.10;89.50
11229;DHT22;5671;47.936;8.716;2022-12-18T06:21:52;-6.40;90.20
11229;DHT22;5671;47.936;8.716;2022-12-18T06:24:20;-6.50;90.50
11229;DHT22;5671;47.936;8.716;2022-12-18T06:26:46;-6.00;89.40
11229;DHT22;5671;47.936;8.716;2022-12-18T06:29:13;-6.00;89.00
11229;DHT22;5671;47.936;8.716;2022-12-18T06:31:40;-6.30;89.20
11229;DHT22;5671;47.936;8.716;2022-12-18T06:34:08;-6.50;90.10
11229;DHT22;5671;47.936;8.716;2022-12-18T06:36:35;-6.50;90.40
11229;DHT22;5671;47.936;8.716;2022-12-18T06:39:02;-6.50;90.50
11229;DHT22;5671;47.936;8.716;2022-12-18T06:41:29;-6.50;90.60
11229;DHT22;5671;47.936;8.716;2022-12-18T06:43:57;-6.50;90.60
11229;DHT22;5671;47.936;8.716;2022-12-18T06:46:24;-5.90;89.50
11229;DHT22;5671;47.936;8.716;2022-12-18T06:48:50;-6.40;90.20
11229;DHT22;5671;47.936;8.716;2022-12-18T06:51:21;-5.90;88.90
11229;DHT22;5671;47.936;8.716;2022-12-18T06:53:48;-6.30;89.40
11229;DHT22;5671;47.936;8.716;2022-12-18T06:56:17;-5.90;88.50
11229;DHT22;5671;47.936;8.716;2022-12-18T06:58:44;-5.80;88.30
11229;DHT22;5671;47.936;8.716;2022-12-18T07:01:12;-6.20;88.90
11229;DHT22;5671;47.936;8.716;2022-12-18T07:03:43;-5.80;88.20
11229;DHT22;5671;47.936;8.716;2022-12-18T07:06:16;-6.20;88.80
11229;DHT22;5671;47.936;8.716;2022-12-18T07:08:45;-6.30;89.50
11229;DHT22;5671;47.936;8.716;2022-12-18T07:11:12;-6.40;89.70
11229;DHT22;5671;47.936;8.716;2022-12-18T07:13:39;-5.90;88.60
11229;DHT22;5671;47.936;8.716;2022-12-18T07:16:08;-5.80;88.20
11229;DHT22;5671;47.936;8.716;2022-12-18T07:18:35;-6.10;88.70
11229;DHT22;5671;47.936;8.716;2022-12-18T07:21:03;-6.30;89.30
11229;DHT22;5671;47.936;8.716;2022-12-18T07:23:32;-6.40;89.60
11229;DHT22;5671;47.936;8.716;2022-12-18T07:26:02;-6.40;89.90
11229;DHT22;5671;47.936;8.716;2022-12-18T07:28:30;-6.40;90.10
11229;DHT22;5671;47.936;8.716;2022-12-18T07:30:56;-6.40;90.10
11229;DHT22;5671;47.936;8.716;2022-12-18T07:33:24;-5.80;88.80
11229;DHT22;5671;47.936;8.716;2022-12-18T07:35:51;-6.10;89.00
11229;DHT22;5671;47.936;8.716;2022-12-18T07:38:18;-5.80;88.70
11229;DHT22;5671;47.936;8.716;2022-12-18T07:40:44;-6.20;89.30
11229;DHT22;5671;47.936;8.716;2022-12-18T07:43:13;-6.30;89.70
11229;DHT22;5671;47.936;8.716;2022-12-18T07:45:39;-6.40;90.10
11229;DHT22;5671;47.936;8.716;2022-12-18T07:48:06;-6.40;90.40
11229;DHT22;5671;47.936;8.716;2022-12-18T07:50:33;-6.40;90.60
11229;DHT22;5671;47.936;8.716;2022-12-18T07:53:00;-5.90;89.60
11229;DHT22;5671;47.936;8.716;2022-12-18T07:55:29;-5.70;89.00
11229;DHT22;5671;47.936;8.716;2022-12-18T07:57:56;-6.10;89.60
11229;DHT22;5671;47.936;8.716;2022-12-18T08:00:24;-6.20;89.90
11229;DHT22;5671;47.936;8.716;2022-12-18T08:02:50;-5.80;88.80
11229;DHT22;5671;47.936;8.716;2022-12-18T08:05:17;-6.10;89.30
11229;DHT22;5671;47.936;8.716;2022-12-18T08:07:44;-6.20;89.90
11229;DHT22;5671;47.936;8.716;2022-12-18T08:10:11;-6.20;90.10
11229;DHT22;5671;47.936;8.716;2022-12-18T08:12:38;-5.70;89.00
11229;DHT22;5671;47.936;8.716;2022-12-18T08:15:06;-6.00;89.30
11229;DHT22;5671;47.936;8.716;2022-12-18T08:17:34;-6.20;89.70
11229;DHT22;5671;47.936;8.716;2022-12-18T08:20:08;-6.20;89.80
11229;DHT22;5671;47.936;8.716;2022-12-18T08:22:35;-6.20;89.80
11229;DHT22;5671;47.936;8.716;2022-12-18T08:25:02;-6.20;90.00
11229;DHT22;5671;47.936;8.716;2022-12-18T08:27:30;-6.10;90.00
11229;DHT22;5671;47.936;8.716;2022-12-18T08:29:57;-6.10;90.00
11229;DHT22;5671;47.936;8.716;2022-12-18T08:32:24;-6.10;90.10
11229;DHT22;5671;47.936;8.716;2022-12-18T08:34:53;-6.10;90.00
11229;DHT22;5671;47.936;8.716;2022-12-18T08:37:20;-5.50;88.50
11229;DHT22;5671;47.936;8.716;2022-12-18T08:39:46;-5.50;88.50
11229;DHT22;5671;47.936;8.716;2022-12-18T08:42:13;-6.00;89.20
11229;DHT22;5671;47.936;8.716;2022-12-18T08:44:58;-6.00;89.20
11229;DHT22;5671;47.936;8.716;2022-12-18T08:47:24;-6.00;89.30
11229;DHT22;5671;47.936;8.716;2022-12-18T08:49:53;-5.90;89.40
11229;DHT22;5671;47.936;8.716;2022-12-18T08:52:20;-5.50;88.20
11229;DHT22;5671;47.936;8.716;2022-12-18T08:54:47;-5.90;88.90
11229;DHT22;5671;47.936;8.716;2022-12-18T08:57:14;-5.90;89.00
11229;DHT22;5671;47.936;8.716;2022-12-18T08:59:41;-5.90;89.10
11229;DHT22;5671;47.936;8.716;2022-12-18T09:02:08;-5.90;89.20
11229;DHT22;5671;47.936;8.716;2022-12-18T09:04:36;-5.80;89.00
11229;DHT22;5671;47.936;8.716;2022-12-18T09:07:04;-5.80;89.00
11229;DHT22;5671;47.936;8.716;2022-12-18T09:09:31;-5.80;88.90
11229;DHT22;5671;47.936;8.716;2022-12-18T09:11:58;-5.80;89.00
11229;DHT22;5671;47.936;8.716;2022-12-18T09:14:25;-5.80;88.90
11229;DHT22;5671;47.936;8.716;2022-12-18T09:16:57;-5.70;88.90
11229;DHT22;5671;47.936;8.716;2022-12-18T09:19:29;-5.70;89.00
11229;DHT22;5671;47.936;8.716;2022-12-18T09:21:56;-5.70;88.90
11229;DHT22;5671;47.936;8.716;2022-12-18T09:24:24;-5.60;88.90
11229;DHT22;5671;47.936;8.716;2022-12-18T09:26:53;-5.60;89.00
11229;DHT22;5671;47.936;8.716;2022-12-18T09:29:20;-5.60;88.90
11229;DHT22;5671;47.936;8.716;2022-12-18T09:31:47;-5.50;88.90
11229;DHT22;5671;47.936;8.716;2022-12-18T09:34:15;-5.50;88.80
11229;DHT22;5671;47.936;8.716;2022-12-18T09:36:44;-5.50;88.80
11229;DHT22;5671;47.936;8.716;2022-12-18T09:39:21;-5.00;87.00
11229;DHT22;5671;47.936;8.716;2022-12-18T09:41:52;-5.30;87.50
11229;DHT22;5671;47.936;8.716;2022-12-18T09:44:25;-5.40;88.00
11229;DHT22;5671;47.936;8.716;2022-12-18T09:46:58;-5.00;87.20
11229;DHT22;5671;47.936;8.716;2022-12-18T09:49:30;-5.40;88.00
11229;DHT22;5671;47.936;8.716;2022-12-18T09:52:01;-5.40;88.00
11229;DHT22;5671;47.936;8.716;2022-12-18T09:54:33;-5.40;88.00
11229;DHT22;5671;47.936;8.716;2022-12-18T09:57:05;-5.40;88.00
11229;DHT22;5671;47.936;8.716;2022-12-18T09:59:35;-5.30;88.10
11229;DHT22;5671;47.936;8.716;2022-12-18T10:02:14;-5.30;88.00
11229;DHT22;5671;47.936;8.716;2022-12-18T10:04:41;-5.30;88.10
11229;DHT22;5671;47.936;8.716;2022-12-18T10:07:12;-5.30;88.10
11229;DHT22;5671;47.936;8.716;2022-12-18T10:09:44;-5.20;88.00
11229;DHT22;5671;47.936;8.716;2022-12-18T10:12:25;-5.20;87.80
11229;DHT22;5671;47.936;8.716;2022-12-18T10:14:59;-5.20;87.70
11229;DHT22;5671;47.936;8.716;2022-12-18T10:17:37;-5.20;87.80
11229;DHT22;5671;47.936;8.716;2022-12-18T10:20:13;-5.20;88.00
11229;DHT22;5671;47.936;8.716;2022-12-18T10:22:50;-5.10;87.90
11229;DHT22;5671;47.936;8.716;2022-12-18T10:25:22;-5.10;87.90
11229;DHT22;5671;47.936;8.716;2022-12-18T10:27:54;-5.10;87.90
11229;DHT22;5671;47.936;8.716;2022-12-18T10:30:24;-5.00;87.90
11229;DHT22;5671;47.936;8.716;2022-12-18T10:32:51;-5.00;87.90
11229;DHT22;5671;47.936;8.716;2022-12-18T10:35:19;-4.90;87.80
11229;DHT22;5671;47.936;8.716;2022-12-18T10:38:01;-4.90;87.30
11229;DHT22;5671;47.936;8.716;2022-12-18T10:40:28;-4.80;87.10
11229;DHT22;5671;47.936;8.716;2022-12-18T10:43:05;-4.80;87.10
11229;DHT22;5671;47.936;8.716;2022-12-18T10:45:37;-4.80;86.80
11229;DHT22;5671;47.936;8.716;2022-12-18T10:48:04;-4.80;86.60
11229;DHT22;5671;47.936;8.716;2022-12-18T10:50:33;-4.80;86.60
11229;DHT22;5671;47.936;8.716;2022-12-18T10:53:01;-4.80;86.00
11229;DHT22;5671;47.936;8.716;2022-12-18T10:55:32;-4.90;86.30
11229;DHT22;5671;47.936;8.716;2022-12-18T10:58:23;-4.80;87.10
11229;DHT22;5671;47.936;8.716;2022-12-18T11:01:06;-4.70;87.10
11229;DHT22;5671;47.936;8.716;2022-12-18T11:03:34;-4.60;86.90
11229;DHT22;5671;47.936;8.716;2022-12-18T11:06:04;-4.60;86.70
11229;DHT22;5671;47.936;8.716;2022-12-18T11:08:42;-4.50;86.50
11229;DHT22;5671;47.936;8.716;2022-12-18T11:11:19;-4.40;86.10
11229;DHT22;5671;47.936;8.716;2022-12-18T11:14:01;-4.40;85.50
11229;DHT22;5671;47.936;8.716;2022-12-18T11:16:32;-4.40;85.10
11229;DHT22;5671;47.936;8.716;2022-12-18T11:19:13;-4.40;85.30
11229;DHT22;5671;47.936;8.716;2022-12-18T11:21:42;-4.40;84.80
11229;DHT22;5671;47.936;8.716;2022-12-18T11:24:19;-4.60;84.70
11229;DHT22;5671;47.936;8.716;2022-12-18T11:26:47;-4.50;85.60
11229;DHT22;5671;47.936;8.716;2022-12-18T11:29:19;-4.40;85.80
11229;DHT22;5671;47.936;8.716;2022-12-18T11:31:49;-4.30;85.70
11229;DHT22;5671;47.936;8.716;2022-12-18T11:34:24;-4.30;85.40
11229;DHT22;5671;47.936;8.716;2022-12-18T11:36:53;-4.30;85.00
11229;DHT22;5671;47.936;8.716;2022-12-18T11:39:34;-4.30;84.90
11229;DHT22;5671;47.936;8.716;2022-12-18T11:42:09;-4.30;85.00
11229;DHT22;5671;47.936;8.716;2022-12-18T11:44:49;-4.30;85.00
11229;DHT22;5671;47.936;8.716;2022-12-18T11:47:39;-4.30;85.50
11229;DHT22;5671;47.936;8.716;2022-12-18T11:50:13;-4.30;85.60
11229;DHT22;5671;47.936;8.716;2022-12-18T11:52:41;-4.20;85.50
11229;DHT22;5671;47.936;8.716;2022-12-18T11:55:11;-4.30;84.60
11229;DHT22;5671;47.936;8.716;2022-12-18T11:57:45;-4.30;85.40
11229;DHT22;5671;47.936;8.716;2022-12-18T12:00:19;-4.30;85.30
11229;DHT22;5671;47.936;8.716;2022-12-18T12:03:17;-4.20;85.60
11229;DHT22;5671;47.936;8.716;2022-12-18T12:08:52;-4.10;85.50
11229;DHT22;5671;47.936;8.716;2022-12-18T12:11:27;-4.00;85.30
11229;DHT22;5671;47.936;8.716;2022-12-18T12:14:09;-4.10;85.10
11229;DHT22;5671;47.936;8.716;2022-12-18T12:16:47;-4.10;85.00
11229;DHT22;5671;47.936;8.716;2022-12-18T12:19:28;-4.10;84.50
11229;DHT22;5671;47.936;8.716;2022-12-18T12:22:05;-4.10;84.80
11229;DHT22;5671;47.936;8.716;2022-12-18T12:25:02;-4.10;84.90
11229;DHT22;5671;47.936;8.716;2022-12-18T12:27:38;-4.10;84.60
11229;DHT22;5671;47.936;8.716;2022-12-18T12:30:11;-4.00;84.60
11229;DHT22;5671;47.936;8.716;2022-12-18T12:35:48;-4.10;84.50
11229;DHT22;5671;47.936;8.716;2022-12-18T12:38:22;-4.10;84.60
11229;DHT22;5671;47.936;8.716;2022-12-18T12:40:54;-4.10;84.60
11229;DHT22;5671;47.936;8.716;2022-12-18T12:43:32;-4.10;84.70
11229;DHT22;5671;47.936;8.716;2022-12-18T12:46:03;-4.20;84.40
11229;DHT22;5671;47.936;8.716;2022-12-18T12:48:39;-4.20;84.60
11229;DHT22;5671;47.936;8.716;2022-12-18T12:51:11;-4.30;84.90
11229;DHT22;5671;47.936;8.716;2022-12-18T12:53:40;-4.30;85.20
11229;DHT22;5671;47.936;8.716;2022-12-18T12:56:10;-4.30;85.20
11229;DHT22;5671;47.936;8.716;2022-12-18T12:58:46;-4.30;85.40
11229;DHT22;5671;47.936;8.716;2022-12-18T13:01:23;-4.40;85.50
11229;DHT22;5671;47.936;8.716;2022-12-18T13:04:00;-4.40;85.70
11229;DHT22;5671;47.936;8.716;2022-12-18T13:06:42;-4.40;85.90
11229;DHT22;5671;47.936;8.716;2022-12-18T13:09:11;-4.50;85.90
11229;DHT22;5671;47.936;8.716;2022-12-18T13:11:39;-4.50;86.10
11229;DHT22;5671;47.936;8.716;2022-12-18T13:14:28;-4.00;84.40
11229;DHT22;5671;47.936;8.716;2022-12-18T13:17:15;-4.30;84.60
11229;DHT22;5671;47.936;8.716;2022-12-18T13:19:44;-4.40;85.80
11229;DHT22;5671;47.936;8.716;2022-12-18T13:22:22;-4.50;85.70
11229;DHT22;5671;47.936;8.716;2022-12-18T13:24:49;-4.50;85.90
11229;DHT22;5671;47.936;8.716;2022-12-18T13:27:54;-4.50;85.90
11229;DHT22;5671;47.936;8.716;2022-12-18T13:30:42;-4.50;85.80
11229;DHT22;5671;47.936;8.716;2022-12-18T13:33:36;-4.50;85.90
11229;DHT22;5671;47.936;8.716;2022-12-18T13:36:13;-4.60;86.10
11229;DHT22;5671;47.936;8.716;2022-12-18T13:38:42;-4.60;85.90
11229;DHT22;5671;47.936;8.716;2022-12-18T13:41:24;-4.60;85.90
11229;DHT22;5671;47.936;8.716;2022-12-18T13:43:53;-4.60;85.80
11229;DHT22;5671;47.936;8.716;2022-12-18T13:49:27;-4.60;86.20
11229;DHT22;5671;47.936;8.716;2022-12-18T13:51:58;-4.60;86.10
11229;DHT22;5671;47.936;8.716;2022-12-18T13:54:30;-4.60;86.30
11229;DHT22;5671;47.936;8.716;2022-12-18T13:57:00;-4.50;86.40
11229;DHT22;5671;47.936;8.716;2022-12-18T13:59:33;-4.50;86.40
11229;DHT22;5671;47.936;8.716;2022-12-18T14:02:07;-4.60;86.10
11229;DHT22;5671;47.936;8.716;2022-12-18T14:04:36;-4.60;85.90
11229;DHT22;5671;47.936;8.716;2022-12-18T14:07:07;-4.60;86.00
11229;DHT22;5671;47.936;8.716;2022-12-18T14:09:40;-4.60;86.10
11229;DHT22;5671;47.936;8.716;2022-12-18T14:12:15;-4.60;86.40
11229;DHT22;5671;47.936;8.716;2022-12-18T14:15:00;-4.70;86.30
11229;DHT22;5671;47.936;8.716;2022-12-18T14:17:27;-4.70;86.40
11229;DHT22;5671;47.936;8.716;2022-12-18T14:19:54;-4.70;86.50
11229;DHT22;5671;47.936;8.716;2022-12-18T14:22:25;-4.70;86.50
11229;DHT22;5671;47.936;8.716;2022-12-18T14:25:14;-4.70;86.60
11229;DHT22;5671;47.936;8.716;2022-12-18T14:27:44;-4.70;86.50
11229;DHT22;5671;47.936;8.716;2022-12-18T14:30:24;-4.70;86.70
11229;DHT22;5671;47.936;8.716;2022-12-18T14:33:09;-4.70;86.70
11229;DHT22;5671;47.936;8.716;2022-12-18T14:35:38;-4.80;86.80
11229;DHT22;5671;47.936;8.716;2022-12-18T14:38:27;-4.80;86.80
11229;DHT22;5671;47.936;8.716;2022-12-18T14:40:56;-4.80;86.70
11229;DHT22;5671;47.936;8.716;2022-12-18T14:43:23;-4.80;86.70
11229;DHT22;5671;47.936;8.716;2022-12-18T14:45:51;-4.80;86.80
11229;DHT22;5671;47.936;8.716;2022-12-18T14:48:20;-4.80;86.80
11229;DHT22;5671;47.936;8.716;2022-12-18T14:50:55;-4.90;86.80
11229;DHT22;5671;47.936;8.716;2022-12-18T14:53:32;-4.90;87.10
11229;DHT22;5671;47.936;8.716;2022-12-18T14:56:00;-4.90;87.20
11229;DHT22;5671;47.936;8.716;2022-12-18T14:58:27;-5.00;87.30
11229;DHT22;5671;47.936;8.716;2022-12-18T15:00:54;-5.00;87.50
11229;DHT22;5671;47.936;8.716;2022-12-18T15:03:21;-5.00;87.50
11229;DHT22;5671;47.936;8.716;2022-12-18T15:05:48;-5.00;87.80
11229;DHT22;5671;47.936;8.716;2022-12-18T15:08:30;-5.00;87.90
11229;DHT22;5671;47.936;8.716;2022-12-18T15:10:57;-5.10;87.90
11229;DHT22;5671;47.936;8.716;2022-12-18T15:13:24;-5.10;88.10
11229;DHT22;5671;47.936;8.716;2022-12-18T15:15:52;-5.10;88.10
11229;DHT22;5671;47.936;8.716;2022-12-18T15:18:21;-5.10;88.20
11229;DHT22;5671;47.936;8.716;2022-12-18T15:20:52;-5.10;88.20
11229;DHT22;5671;47.936;8.716;2022-12-18T15:23:22;-5.10;88.30
11229;DHT22;5671;47.936;8.716;2022-12-18T15:25:56;-5.10;88.40
11229;DHT22;5671;47.936;8.716;2022-12-18T15:28:31;-5.10;88.60
11229;DHT22;5671;47.936;8.716;2022-12-18T15:33:43;-5.10;88.70
11229;DHT22;5671;47.936;8.716;2022-12-18T15:36:13;-5.10;88.80
11229;DHT22;5671;47.936;8.716;2022-12-18T15:38:40;-5.20;88.90
11229;DHT22;5671;47.936;8.716;2022-12-18T15:41:12;-5.20;88.90
11229;DHT22;5671;47.936;8.716;2022-12-18T15:43:39;-5.20;88.90
11229;DHT22;5671;47.936;8.716;2022-12-18T15:48:35;-4.60;87.30
11229;DHT22;5671;47.936;8.716;2022-12-18T15:51:08;-5.10;88.10
11229;DHT22;5671;47.936;8.716;2022-12-18T15:53:38;-5.20;88.60
11229;DHT22;5671;47.936;8.716;2022-12-18T15:56:11;-5.20;88.70
11229;DHT22;5671;47.936;8.716;2022-12-18T15:59:16;-5.20;88.90
11229;DHT22;5671;47.936;8.716;2022-12-18T16:01:45;-5.20;89.10
11229;DHT22;5671;47.936;8.716;2022-12-18T16:04:13;-5.20;89.10
11229;DHT22;5671;47.936;8.716;2022-12-18T16:06:41;-5.20;89.20
11229;DHT22;5671;47.936;8.716;2022-12-18T16:09:08;-5.30;89.30
11229;DHT22;5671;47.936;8.716;2022-12-18T16:11:37;-5.20;89.40
11229;DHT22;5671;47.936;8.716;2022-12-18T16:14:12;-5.30;89.50
11229;DHT22;5671;47.936;8.716;2022-12-18T16:16:42;-5.30;89.60
11229;DHT22;5671;47.936;8.716;2022-12-18T16:19:14;-5.30;89.70
11229;DHT22;5671;47.936;8.716;2022-12-18T16:21:42;-5.30;89.80